26. September 2022

Uhrzeit Code Wetter Temp. Sichtweite Wolkendecke Wind METAR/SPECI
23:30
M
16 °C 10 km+ 2.400 ft 230° 230° 9 kt METAR LFBM 262130Z AUTO 23009KT 200V260 9999 // BKN024 BKN035 BKN046 16/13 Q1013
23:00
V
16 °C 10 km+ 5.200 ft 230° 230° 9 kt METAR LFBM 262100Z AUTO 23009KT 200V260 9999 // FEW045 BKN052 BKN066 16/12 Q1013
22:30
V
16 °C 10 km+ - 230° 230° 9 kt METAR LFBM 262030Z AUTO 23009KT 200V260 9999 // NSC 16/12 Q1013
22:00
V
16 °C 10 km+ - 230° 230° 9 kt METAR LFBM 262000Z AUTO 23009KT 200V260 9999 // NSC 16/11 Q1013
21:30
V
16 °C 10 km+ - 230° 230° 7 kt METAR LFBM 261930Z AUTO 23007KT 200V260 9999 // NSC 16/11 Q1014
21:00
V
17 °C 10 km+ 5.000 ft 240° 240° 11 kt METAR LFBM 261900Z AUTO 24011KT 9999 // FEW035 BKN050 OVC100 17/11 Q1014
20:30
V
17 °C 10 km+ 7.000 ft 240° 240° 8 kt METAR LFBM 261830Z AUTO 24008KT 210V270 9999 // SCT037 SCT054 OVC070 17/11 Q1014
20:00
V
17 °C 10 km+ - 250° 250° 10 kt METAR LFBM 261800Z AUTO 25010KT 9999 // FEW038 SCT110 17/10 Q1014
19:30
V
18 °C 10 km+ - 270° 270° 13 kt METAR LFBM 261730Z AUTO 27013KT 9999 // NSC 18/10 Q1014
19:00
V
18 °C 10 km+ - 280° 280° 16 kt METAR LFBM 261700Z AUTO 28016KT 9999 // FEW039/// SCT045/// ///CB 18/10 Q1014
18:30
V
18 °C 10 km+ 6.000 ft 250° 250° 11 kt METAR LFBM 261630Z AUTO 25011KT 9999 // SCT034 SCT049 BKN060 18/12 Q1014
18:00
V
19 °C 10 km+ 8.600 ft 240° 240° 12 kt METAR LFBM 261600Z AUTO 24012KT 220V280 9999 // FEW040 SCT076 BKN086 19/12 Q1014
17:30
V
19 °C 10 km+ - 260° 260° 13 kt METAR LFBM 261530Z AUTO 26013KT 9999 // //////TCU 19/12 Q1014
17:00
V
21 °C 10 km+ 16.000 ft 250° 250° 14 kt METAR LFBM 261500Z AUTO 25014KT 9999 // FEW042/// SCT049/// BKN160/// //////TCU 21/11 Q1014
16:30
V
20 °C 10 km+ 6.000 ft 260° 260° 11 kt METAR LFBM 261430Z AUTO 26011KT 230V290 9999 // FEW048 BKN060 OVC076 20/10 Q1014
16:00
V
20 °C 10 km+ 7.200 ft 260° 260° 14 kt METAR LFBM 261400Z AUTO 26014KT 9999 // SCT042/// BKN072/// OVC150/// //////TCU 20/10 Q1014
15:30
V
20 °C 10 km+ 4.600 ft 250° 250° 11 kt METAR LFBM 261330Z AUTO 25011KT 9999 // SCT038 BKN046 BKN130 20/11 Q1014
15:00
V
20 °C 10 km+ 4.300 ft 260° 260° 11 kt METAR LFBM 261300Z AUTO 26011KT 200V290 9999 // SCT037 BKN043 BKN050 20/12 Q1014
14:30
V
20 °C 10 km+ 8.400 ft 250° 250° 10 kt METAR LFBM 261230Z AUTO 25010KT 220V290 9999 // FEW034 SCT043 BKN084 20/11 Q1015
14:00
V
19 °C 10 km+ 3.900 ft 250° 250° 9 kt METAR LFBM 261200Z AUTO 25009KT 220V280 9999 // SCT033 BKN039 BKN050 19/12 Q1015
13:30
V
20 °C 10 km+ 8.000 ft 250° 250° 8 kt METAR LFBM 261130Z AUTO 25008KT 220V290 9999 // FEW030 BKN080 OVC170 20/11 Q1015
13:00
V
18 °C 10 km+ 8.200 ft 260° 260° 10 kt METAR LFBM 261100Z AUTO 26010KT 9999 // FEW028 SCT033 OVC082 18/12 Q1015
12:30
V
18 °C 10 km+ 7.600 ft 250° 250° 8 kt METAR LFBM 261030Z AUTO 25008KT 210V290 9999 // SCT024 BKN076 OVC210 18/11 Q1015
12:00
V
17 °C 10 km+ - 270° 270° 8 kt METAR LFBM 261000Z AUTO 27008KT 9999 // NSC 17/13 Q1016
11:30
V
16 °C 10 km+ - 270° 270° 4 kt METAR LFBM 260930Z AUTO 27004KT 220V310 9999 // NSC 16/12 Q1016
11:00
V
14 °C 10 km+ - Var Var 3 kt METAR LFBM 260900Z AUTO VRB03KT 9999 // NSC 14/12 Q1016
10:30
V
12 °C 10 km+ - Var Var 1 kt METAR LFBM 260830Z AUTO VRB01KT 9999 // NSC 12/12 Q1016
10:00
L
9 °C 7 km - Var Var 1 kt METAR LFBM 260800Z AUTO VRB01KT 7000 // VV/// 09/09 Q1016
09:30
L
9 °C 250 m - Var Var 1 kt METAR LFBM 260730Z AUTO VRB01KT 0300 0250 R27/0350U // VV/// 09/08 Q1016
09:00
L
8 °C 300 m - Var Var 1 kt METAR LFBM 260700Z AUTO VRB01KT 0800 0300 R27/0400D // VV/// 08/08 Q1016
08:30
V
7 °C 10 km+ - Var 000° 0 kt METAR LFBM 260630Z AUTO 00000KT 9999 // FEW002 07/07 Q1015
08:00
V
6 °C 10 km+ - 320° 320° 1 kt METAR LFBM 260600Z AUTO 32001KT 9999 // FEW002 06/06 Q1015
07:30
V
6 °C 10 km+ - Var 000° 0 kt METAR LFBM 260530Z AUTO 00000KT 9999 // SCT002 06/06 Q1015
07:00
V
7 °C 10 km+ - 270° 270° 1 kt METAR LFBM 260500Z AUTO 27001KT 9999 // NSC 07/06 Q1016
06:30
V
7 °C 10 km+ - Var 000° 0 kt METAR LFBM 260430Z AUTO 00000KT 9999 // NSC 07/07 Q1016
06:00
V
8 °C 10 km+ - Var 000° 0 kt METAR LFBM 260400Z AUTO 00000KT 9999 // NSC 08/07 Q1016
05:30
V
8 °C 10 km+ - Var 000° 0 kt METAR LFBM 260330Z AUTO 00000KT 9999 // NSC 08/07 Q1016
05:00
V
8 °C 10 km+ - Var Var 2 kt METAR LFBM 260300Z AUTO VRB02KT 9999 // NSC 08/08 Q1016
04:30
V
9 °C 8 km - 260° 260° 2 kt METAR LFBM 260230Z AUTO 26002KT 8000 // NSC 09/09 Q1016
04:00
V
9 °C 10 km+ - 290° 290° 2 kt METAR LFBM 260200Z AUTO 29002KT 9999 // NSC 09/08 Q1016
03:30
V
9 °C 10 km+ - 260° 260° 1 kt METAR LFBM 260130Z AUTO 26001KT 9999 // NSC 09/08 Q1016
03:00
V
10 °C 10 km+ - 230° 230° 2 kt METAR LFBM 260100Z AUTO 23002KT 9999 // NSC 10/09 Q1016
02:30
V
10 °C 10 km+ - 260° 260° 3 kt METAR LFBM 260030Z AUTO 26003KT 9999 // NSC 10/09 Q1016
02:00
V
10 °C 10 km+ - 270° 270° 3 kt METAR LFBM 260000Z AUTO 27003KT 9999 // NSC 10/09 Q1016
01:30
V
11 °C 10 km+ - Var 000° 0 kt METAR LFBM 252330Z AUTO 00000KT 9999 // NSC 11/09 Q1016
01:00
V
11 °C 10 km+ - 250° 250° 2 kt METAR LFBM 252300Z AUTO 25002KT 9999 // NSC 11/10 Q1017
00:30
V
11 °C 10 km+ - Var 000° 0 kt METAR LFBM 252230Z AUTO 00000KT 9999 // NSC 11/09 Q1017
00:00
V
11 °C 10 km+ - Var 000° 0 kt METAR LFBM 252200Z AUTO 00000KT 9999 // NSC 11/09 Q1017

25. September 2022

Uhrzeit Code Wetter Temp. Sichtweite Wolkendecke Wind METAR/SPECI
23:30
V
11 °C 10 km+ - Var 000° 0 kt METAR LFBM 252130Z AUTO 00000KT 9999 // NSC 11/09 Q1017
23:00
V
12 °C 10 km+ - Var 000° 0 kt METAR LFBM 252100Z AUTO 00000KT 9999 // NSC 12/09 Q1017
22:30
V
12 °C 10 km+ - 300° 300° 3 kt METAR LFBM 252030Z AUTO 30003KT 9999 // NSC 12/09 Q1017
22:00
V
13 °C 10 km+ - 270° 270° 4 kt METAR LFBM 252000Z AUTO 27004KT 9999 // NSC 13/09 Q1017
21:30
V
14 °C 10 km+ - 270° 270° 4 kt METAR LFBM 251930Z AUTO 27004KT 9999 // NSC 14/10 Q1017
21:00
V
14 °C 10 km+ - 280° 280° 5 kt METAR LFBM 251900Z AUTO 28005KT 9999 // NSC 14/10 Q1016
20:30
V
15 °C 10 km+ - 280° 280° 4 kt METAR LFBM 251830Z AUTO 28004KT 9999 // NSC 15/11 Q1016
20:00
V
16 °C 10 km+ - 280° 280° 4 kt METAR LFBM 251800Z AUTO 28004KT 9999 // NSC 16/11 Q1016
19:30
V
17 °C 10 km+ - 280° 280° 5 kt METAR LFBM 251730Z AUTO 28005KT 9999 // NSC 17/11 Q1016
19:00
V
17 °C 10 km+ - 280° 280° 8 kt METAR LFBM 251700Z AUTO 28008KT 9999 // NSC 17/10 Q1015
18:30
V
18 °C 10 km+ 9.800 ft 280° 280° 10 kt METAR LFBM 251630Z AUTO 28010KT 9999 // SCT047 BKN098 18/11 Q1015
18:00
V
19 °C 10 km+ - 280° 280° 9 kt METAR LFBM 251600Z AUTO 28009KT 9999 // NSC 19/11 Q1015
17:30
V
20 °C 10 km+ 5.400 ft 280° 280° 11 kt METAR LFBM 251530Z AUTO 28011KT 9999 // FEW038 BKN054 OVC098 20/11 Q1015
17:00
V
19 °C 10 km+ - Var Var 3 kt METAR LFBM 251500Z AUTO VRB03KT 9999 // NSC 19/13 Q1015
16:30
V
18 °C 10 km+ - 220° 220° 3 kt METAR LFBM 251430Z AUTO 22003KT 180V250 9999 // NSC 18/13 Q1015
16:00
V
17 °C 10 km+ 4.800 ft 270° 270° 8 kt METAR LFBM 251400Z AUTO 27008KT 9999 // FEW027/// BKN048/// BKN056/// //////TCU 17/13 Q1015
15:30
V
20 °C 10 km+ 8.400 ft 280° 280° 5 kt METAR LFBM 251330Z AUTO 28005KT 200V330 9999 // FEW048/// SCT058/// BKN084/// //////CB 20/08 Q1015
15:00
V
20 °C 10 km+ - 150° 150° 3 kt METAR LFBM 251300Z AUTO 15003KT 110V210 9999 // NSC 20/08 Q1015
14:30
V
19 °C 10 km+ 8.200 ft 220° 220° 3 kt METAR LFBM 251230Z AUTO 22003KT 140V260 9999 // FEW043 BKN082 19/09 Q1016
14:00
V
19 °C 10 km+ 5.000 ft 220° 220° 3 kt METAR LFBM 251200Z AUTO 22003KT 180V290 9999 // SCT041 BKN050 BKN060 19/09 Q1016
13:30
V
19 °C 10 km+ - Var Var 3 kt METAR LFBM 251130Z AUTO VRB03KT 9999 // FEW045 SCT082 19/10 Q1016
13:00
V
19 °C 10 km+ - Var Var 2 kt METAR LFBM 251100Z AUTO VRB02KT 9999 // FEW025 SCT220 19/10 Q1016
12:30
V
18 °C 10 km+ - Var Var 1 kt METAR LFBM 251030Z AUTO VRB01KT 9999 // SCT024 18/11 Q1016
12:00
M
18 °C 10 km+ 1.700 ft Var Var 2 kt METAR LFBM 251000Z AUTO VRB02KT 9999 // BKN017 18/12 Q1017
11:30
V
16 °C 10 km+ - Var Var 2 kt METAR LFBM 250930Z AUTO VRB02KT 9999 // FEW011 16/13 Q1017
11:00
V
15 °C 10 km+ - Var Var 3 kt METAR LFBM 250900Z AUTO VRB03KT 9999 // NSC 15/13 Q1017
10:30
V
14 °C 10 km+ - 270° 270° 3 kt METAR LFBM 250830Z AUTO 27003KT 240V300 9999 // NSC 14/13 Q1016
10:00
V
12 °C 10 km+ - Var 000° 0 kt METAR LFBM 250800Z AUTO 00000KT 9999 // FEW003 12/12 Q1016
09:30
V
11 °C 10 km+ 20.000 ft Var Var 1 kt METAR LFBM 250730Z AUTO VRB01KT 9999 // SCT002 SCT013 BKN200 11/11 Q1016
09:00
L
10 °C 2 km - Var 000° 0 kt METAR LFBM 250700Z AUTO 00000KT 2000 R27/1000U // VV/// 10/10 Q1016
08:30
L
8 °C 650 m - Var 000° 0 kt METAR LFBM 250630Z AUTO 00000KT 0700 0650 R27/0750D // VV/// 08/08 Q1016
08:00
L
8 °C 300 m - 090° 090° 2 kt METAR LFBM 250600Z AUTO 09002KT 0300 R27/0325N // VV/// 08/07 Q1016
07:30
L
8 °C 10 km+ - Var Var 3 kt METAR LFBM 250530Z AUTO VRB03KT 9999 // VV/// 08/07 Q1016
07:00
I
9 °C 1,6 km - Var 000° 0 kt METAR LFBM 250500Z AUTO 00000KT 1600 R27/1300U // NSC 09/08 Q1016
06:30
L
10 °C 1 km - Var Var 1 kt METAR LFBM 250430Z AUTO VRB01KT 2200 1000 R27/1400D // FEW008 10/10 Q1015
06:00
V
10 °C 10 km+ - 270° 270° 3 kt METAR LFBM 250400Z AUTO 27003KT 9999 // NSC 10/10 Q1015
05:30
V
10 °C 10 km+ 22.000 ft 260° 260° 4 kt METAR LFBM 250330Z AUTO 26004KT 9999 // FEW028 SCT035 BKN220 10/10 Q1015
05:00
V
10 °C 10 km+ 22.000 ft 260° 260° 4 kt METAR LFBM 250300Z AUTO 26004KT 9999 // FEW031 SCT039 OVC220 10/10 Q1015
04:30
V
11 °C 10 km+ 23.000 ft 230° 230° 3 kt METAR LFBM 250230Z AUTO 23003KT 9999 // FEW034 SCT210 OVC230 11/11 Q1015
04:00
V
10 °C 10 km+ - Var Var 2 kt METAR LFBM 250200Z AUTO VRB02KT 9999 // NSC 10/10 Q1015
03:30
V
10 °C 10 km+ - 250° 250° 4 kt METAR LFBM 250130Z AUTO 25004KT 9999 // NSC 10/09 Q1015
03:00
V
11 °C 10 km+ - 240° 240° 5 kt METAR LFBM 250100Z AUTO 24005KT 9999 // NSC 11/11 Q1016
02:30
V
10 °C 10 km+ - 230° 230° 3 kt METAR LFBM 250030Z AUTO 23003KT 9999 // NSC 10/10 Q1016
02:00
V
11 °C 10 km+ - Var 000° 0 kt METAR LFBM 250000Z AUTO 00000KT 9999 // NSC 11/10 Q1016
01:30
V
11 °C 10 km+ - Var 000° 0 kt METAR LFBM 242330Z AUTO 00000KT 9999 // NSC 11/10 Q1016
01:00
V
11 °C 10 km+ - Var 000° 0 kt METAR LFBM 242300Z AUTO 00000KT 9999 // NSC 11/10 Q1016
00:30
V
12 °C 10 km+ - 230° 230° 1 kt METAR LFBM 242230Z AUTO 23001KT 9999 // NSC 12/11 Q1016
00:00
V
12 °C 10 km+ - 250° 250° 2 kt METAR LFBM 242200Z AUTO 25002KT 9999 // NSC 12/11 Q1016

24. September 2022

Uhrzeit Code Wetter Temp. Sichtweite Wolkendecke Wind METAR/SPECI
23:30
V
13 °C 10 km+ 16.000 ft 240° 240° 3 kt METAR LFBM 242130Z AUTO 24003KT 9999 // FEW031/// BKN160/// BKN190/// ///TCU 13/11 Q1016
23:00
V
13 °C 10 km+ - 260° 260° 2 kt METAR LFBM 242100Z AUTO 26002KT 9999 // //////CB 13/11 Q1016
22:30
V
14 °C 10 km+ - 230° 230° 3 kt METAR LFBM 242030Z AUTO 23003KT 9999 // NSC 14/12 Q1016
22:00
V
14 °C 10 km+ - 250° 250° 3 kt METAR LFBM 242000Z AUTO 25003KT 9999 // NSC 14/11 Q1016
21:30
V
14 °C 10 km+ 16.000 ft 240° 240° 3 kt METAR LFBM 241930Z AUTO 24003KT 210V270 9999 // FEW047 OVC160 14/12 Q1016
21:00
V
15 °C 10 km+ 17.000 ft 240° 240° 4 kt METAR LFBM 241900Z AUTO 24004KT 9999 // FEW043 BKN170 OVC190 15/12 Q1015
20:30
V
16 °C 10 km+ 18.000 ft 240° 240° 3 kt METAR LFBM 241830Z AUTO 24003KT 9999 // FEW036 OVC180 16/12 Q1015
20:00
V
16 °C 10 km+ 17.000 ft 250° 250° 5 kt METAR LFBM 241800Z AUTO 25005KT 9999 // FEW035 OVC170 16/12 Q1015
19:30
V
17 °C 10 km+ - 250° 250° 6 kt METAR LFBM 241730Z AUTO 25006KT 9999 // //////CB 17/11 Q1015
19:00
V
18 °C 10 km+ - 270° 270° 9 kt METAR LFBM 241700Z AUTO 27009KT 9999 // FEW039/// //////CB 18/11 Q1015
18:30
V
19 °C 10 km+ 17.000 ft 250° 250° 10 kt METAR LFBM 241630Z AUTO 25010KT 200V280 9999 // FEW040/// SCT084/// BKN170/// //////CB 19/11 Q1015
18:00
V
18 °C 10 km+ 10.000 ft 230° 230° 8 kt METAR LFBM 241600Z AUTO 23008KT 200V260 9999 // SCT039 BKN100 OVC130 18/15 Q1014
17:30
V
17 °C 10 km+ - 240° 240° 8 kt METAR LFBM 241530Z AUTO 24008KT 9999 // //////CB 17/15 Q1015
17:00
V
18 °C 10 km+ 14.000 ft 240° 240° 9 kt METAR LFBM 241500Z AUTO 24009KT 200V270 9999 // FEW014 BKN140 OVC220 18/15 Q1014
Ältere Daten

Wir und Dritte verfolgen dein Internetverhalten auf unserer Website mit Cookies. Wenn du fortfährst, gehen wir davon aus, dass du mit unserer Cookie-Richtlinie einverstanden bist. Mehr erfahren